Туризм
Свали.ру
Погода в мире
ИА "Метеоновости"
Информеры
для сайтов
Туры
поиск и заказ
Авиабилеты
регулярные и чартерные рейсы
 
    На главную   Табло рисков задержки   Авиабилеты   Расписание авиарейсов

Rapid City Regional Airport    ICAO или ID: KRAP, IATA: RAP
Небольшой аэропорт, регулярные рейсы
добавить в избранное


широта:
долгота:
высота над уровнем моря:
44°3'
-103°3'

977 м
Страна: США (United States)
погода
туры
отели
аэропорты
Риск задержки рейсов из-за погоды
Факт:  
Прогноз:  
 Карта
 




Прогноз погоды на 24 ч. с 00:00 22-11-2019 по 00:00 30-11-1999 UTC
Прогнозируемый риск задержки рейсов из-за погодных условий
 
KRAP на 24ч. с 22/00ч. до 22/24ч., ясно, ветер переменный 3 м/c, гор. видимость: 9000+, ночь, день

Исходная телеграмма в коде TAF
KRAP 212320Z 2200/2224 VRB05KT P6SM SKC

Раскодировка телеграмм производится в автоматическом режиме, в телеграммах могут содержаться ошибки, приводящие к их неправильной интерпретации.

Предупреждение: данные на этом сайте не могут быть использованы для планирования полётов и предоставляются только в информационных целях.
Найти аэропорт
По названию или городу
только регулярные рейсы

Избранные аэропорты
Список пуст



© 2008 Данио-Пресс. Все права защищены.
Использование материалов сайта возможно только с согласия администрации сервера.
По вопросам рекламы и размещения информации обращаться сюда.


 Рейтинг@Mail.ru  Rambler's Top100